createdAt,value
2022-11-17T00:02:00.500Z,9.10
2022-11-17T00:05:03.686Z,9.00
2022-11-17T00:08:06.791Z,9.10
2022-11-17T00:11:11.478Z,9.10
2022-11-17T00:14:32.099Z,9.00
2022-11-17T00:17:35.231Z,9.00
2022-11-17T00:20:57.142Z,9.10
2022-11-17T00:24:00.438Z,9.10
2022-11-17T00:27:05.050Z,9.20
2022-11-17T00:30:09.304Z,9.10
2022-11-17T00:33:29.959Z,9.20
2022-11-17T00:36:34.202Z,9.20
2022-11-17T00:39:37.535Z,9.20
2022-11-17T00:42:41.967Z,9.20
2022-11-17T00:45:45.064Z,9.20
2022-11-17T00:48:48.353Z,9.20
2022-11-17T00:51:51.448Z,9.30
2022-11-17T00:54:54.586Z,9.30
2022-11-17T00:57:59.023Z,9.30
2022-11-17T01:01:02.170Z,9.40
2022-11-17T01:04:06.393Z,9.40
2022-11-17T01:07:09.556Z,9.40
2022-11-17T01:10:12.754Z,9.40
2022-11-17T01:13:18.606Z,9.30
2022-11-17T01:16:22.398Z,9.20
2022-11-17T01:19:26.163Z,9.20
2022-11-17T01:22:29.257Z,9.20
2022-11-17T01:25:32.543Z,9.20
2022-11-17T01:28:37.808Z,9.30
2022-11-17T01:31:43.604Z,9.30
2022-11-17T01:34:46.784Z,9.30
2022-11-17T01:37:49.870Z,9.30
2022-11-17T01:40:53.039Z,9.40
2022-11-17T01:43:59.136Z,9.50
2022-11-17T01:47:02.829Z,9.50
2022-11-17T01:50:14.113Z,9.50
2022-11-17T01:53:20.142Z,9.50
2022-11-17T01:56:28.382Z,9.40
2022-11-17T01:59:36.343Z,9.50
2022-11-17T02:02:42.034Z,9.50
2022-11-17T02:05:51.476Z,9.50
2022-11-17T02:08:55.937Z,9.60
2022-11-17T02:12:00.699Z,9.60
2022-11-17T02:15:06.744Z,9.60
2022-11-17T02:18:10.027Z,9.60
2022-11-17T02:21:28.549Z,9.60
2022-11-17T02:25:00.005Z,9.60
2022-11-17T02:28:16.427Z,9.70
2022-11-17T02:31:26.773Z,9.70
2022-11-17T02:34:39.363Z,9.60
2022-11-17T02:37:51.275Z,9.50
2022-11-17T02:40:59.743Z,9.50
2022-11-17T02:44:11.421Z,9.40
2022-11-17T02:47:19.541Z,9.40
2022-11-17T02:50:28.206Z,9.40
2022-11-17T02:53:33.040Z,9.40
2022-11-17T02:56:42.055Z,9.50
2022-11-17T02:59:49.985Z,9.50
2022-11-17T03:03:11.398Z,9.50
2022-11-17T03:06:22.653Z,9.40
2022-11-17T03:09:37.057Z,9.50
2022-11-17T03:12:46.851Z,9.50
2022-11-17T03:15:57.844Z,9.40
2022-11-17T03:19:07.821Z,9.40
2022-11-17T03:22:15.778Z,9.40
2022-11-17T03:25:21.825Z,9.40
2022-11-17T03:28:29.245Z,9.50
2022-11-17T03:31:35.043Z,9.50
2022-11-17T03:34:43.266Z,9.50
2022-11-17T03:37:49.719Z,9.50
2022-11-17T03:40:55.423Z,9.50
2022-11-17T03:43:59.621Z,9.40
2022-11-17T03:50:34.256Z,9.40
2022-11-17T03:53:38.205Z,9.30
2022-11-17T03:56:50.441Z,9.30
2022-11-17T03:59:57.096Z,9.30
2022-11-17T04:03:01.555Z,9.20
2022-11-17T04:06:04.819Z,9.10
2022-11-17T04:09:07.930Z,9.10
2022-11-17T04:12:28.214Z,9.20
2022-11-17T04:15:48.655Z,9.10
2022-11-17T04:18:57.540Z,9.10
2022-11-17T04:22:02.684Z,9.00
2022-11-17T04:25:06.374Z,9.00
2022-11-17T04:28:26.903Z,8.90
2022-11-17T04:31:31.627Z,8.90
2022-11-17T04:34:36.068Z,8.90
2022-11-17T04:37:39.156Z,8.80
2022-11-17T04:41:02.241Z,8.90
2022-11-17T04:44:06.169Z,8.80
2022-11-17T04:47:09.286Z,8.80
2022-11-17T04:50:13.776Z,8.80
2022-11-17T04:53:16.910Z,8.90
2022-11-17T04:56:21.026Z,8.80
2022-11-17T04:59:24.487Z,8.80
2022-11-17T05:02:27.634Z,8.80
2022-11-17T05:05:32.162Z,8.80
2022-11-17T05:08:36.907Z,8.70
2022-11-17T05:11:57.637Z,8.70
2022-11-17T05:15:00.739Z,8.70
2022-11-17T05:18:02.821Z,8.70
2022-11-17T05:21:09.073Z,8.70
2022-11-17T05:24:14.395Z,8.70
2022-11-17T05:27:17.499Z,8.70
2022-11-17T05:30:20.787Z,8.80
2022-11-17T05:33:23.875Z,8.80
2022-11-17T05:36:29.640Z,8.80
2022-11-17T05:39:32.859Z,8.80
2022-11-17T05:42:36.011Z,8.70
2022-11-17T05:45:39.120Z,8.70
2022-11-17T05:48:42.182Z,8.70
2022-11-17T05:51:52.354Z,8.60
2022-11-17T05:54:55.961Z,8.50
2022-11-17T05:58:02.710Z,8.50
2022-11-17T06:01:07.946Z,8.40
2022-11-17T06:04:12.230Z,8.40
2022-11-17T06:07:18.036Z,8.40
2022-11-17T06:10:21.567Z,8.40
2022-11-17T06:13:29.018Z,8.50
2022-11-17T06:16:37.116Z,8.50
2022-11-17T06:19:45.182Z,8.60
2022-11-17T06:22:50.491Z,8.60
2022-11-17T06:25:53.868Z,8.70
2022-11-17T06:28:57.902Z,8.80
2022-11-17T06:32:01.297Z,8.80
2022-11-17T06:35:09.029Z,8.80
2022-11-17T06:38:13.525Z,8.90
2022-11-17T06:41:16.670Z,9.00
2022-11-17T06:44:19.772Z,9.00
2022-11-17T06:47:22.841Z,9.00
2022-11-17T06:50:25.944Z,9.00
2022-11-17T06:53:30.449Z,9.00
2022-11-17T06:56:33.565Z,9.00
2022-11-17T06:59:36.677Z,9.10
2022-11-17T07:02:39.799Z,9.20
2022-11-17T07:05:42.896Z,9.20
2022-11-17T07:08:47.422Z,9.20
2022-11-17T07:11:50.515Z,9.20
2022-11-17T07:14:53.781Z,9.20
2022-11-17T07:17:56.880Z,9.30
2022-11-17T07:21:04.224Z,9.40
2022-11-17T07:24:09.204Z,9.50
2022-11-17T07:27:12.354Z,9.50
2022-11-17T07:30:16.179Z,9.50
2022-11-17T07:33:19.352Z,9.60
2022-11-17T07:36:22.496Z,9.90
2022-11-17T07:39:27.015Z,10.20
2022-11-17T07:42:30.145Z,10.60
2022-11-17T07:45:33.308Z,10.80
2022-11-17T07:48:36.837Z,10.90
2022-11-17T07:51:40.171Z,11.10
2022-11-17T07:54:44.658Z,11.20
2022-11-17T07:57:47.789Z,11.30
2022-11-17T08:00:50.933Z,11.30
2022-11-17T08:03:54.164Z,11.40
2022-11-17T08:06:57.432Z,11.60
2022-11-17T08:10:02.003Z,11.50
2022-11-17T08:13:05.486Z,11.50
2022-11-17T08:16:10.165Z,11.60
2022-11-17T08:19:14.417Z,11.60
2022-11-17T08:22:17.760Z,11.60
2022-11-17T08:25:24.239Z,11.60
2022-11-17T08:28:27.385Z,11.50
2022-11-17T08:31:30.585Z,11.40
2022-11-17T08:34:33.667Z,11.40
2022-11-17T08:37:37.145Z,11.40
2022-11-17T08:40:41.964Z,11.50
2022-11-17T08:43:45.090Z,11.60
2022-11-17T08:46:49.052Z,11.70
2022-11-17T08:49:52.399Z,11.80
2022-11-17T08:52:55.535Z,11.80
2022-11-17T08:56:00.081Z,11.80
2022-11-17T08:59:03.634Z,11.90
2022-11-17T09:02:07.037Z,11.80
2022-11-17T09:05:10.670Z,11.80
2022-11-17T09:11:39.348Z,11.80
2022-11-17T09:14:42.527Z,11.90
2022-11-17T09:17:48.036Z,11.90
2022-11-17T09:20:51.160Z,11.90
2022-11-17T09:23:54.500Z,11.70
2022-11-17T09:26:59.057Z,11.70
2022-11-17T09:30:02.187Z,11.60
2022-11-17T09:33:05.449Z,11.60
2022-11-17T09:36:09.496Z,11.50
2022-11-17T09:39:12.618Z,11.40
2022-11-17T09:42:20.173Z,11.40
2022-11-17T09:45:27.050Z,11.40
2022-11-17T09:48:41.864Z,11.20
2022-11-17T09:51:48.452Z,11.10
2022-11-17T09:54:55.807Z,11.10
2022-11-17T09:58:09.359Z,11.20
2022-11-17T10:01:13.864Z,11.00
2022-11-17T10:04:18.746Z,11.00
2022-11-17T10:07:22.241Z,11.20
2022-11-17T10:10:37.273Z,11.40
2022-11-17T10:13:41.892Z,11.60
2022-11-17T10:16:47.768Z,11.90
2022-11-17T10:19:50.888Z,12.00
2022-11-17T10:22:55.698Z,12.20
2022-11-17T10:26:00.056Z,12.40
2022-11-17T10:29:12.305Z,12.50
2022-11-17T10:32:16.563Z,12.60
2022-11-17T10:35:22.643Z,12.50
2022-11-17T10:38:29.030Z,12.50
2022-11-17T10:41:40.088Z,12.40
2022-11-17T10:44:51.310Z,12.40
2022-11-17T10:48:10.651Z,13.10
2022-11-17T10:51:24.367Z,16.40
2022-11-17T10:54:27.488Z,20.70
2022-11-17T10:57:30.696Z,23.60
2022-11-17T11:00:37.517Z,25.90
2022-11-17T11:03:50.506Z,28.10
2022-11-17T11:07:08.273Z,28.70
2022-11-17T11:10:18.135Z,26.20
2022-11-17T11:13:29.547Z,23.50
2022-11-17T11:16:33.978Z,21.50
2022-11-17T11:19:37.123Z,20.20
2022-11-17T11:22:47.415Z,19.10
2022-11-17T11:25:54.015Z,18.10
2022-11-17T11:29:08.237Z,18.10
2022-11-17T11:32:25.140Z,18.40
2022-11-17T11:35:44.483Z,19.10
2022-11-17T11:38:57.052Z,18.90
2022-11-17T11:42:23.539Z,18.60
2022-11-17T11:45:46.873Z,18.40
2022-11-17T11:48:55.192Z,17.70
2022-11-17T11:51:58.518Z,17.80
2022-11-17T11:55:04.592Z,21.20
2022-11-17T11:58:16.538Z,25.30
2022-11-17T12:01:22.462Z,28.10
2022-11-17T12:04:44.399Z,29.80
2022-11-17T12:07:53.823Z,32.60
2022-11-17T12:11:22.149Z,31.70
2022-11-17T12:14:25.479Z,32.40
2022-11-17T12:17:28.639Z,34.10
2022-11-17T12:20:54.166Z,33.70
2022-11-17T12:24:17.855Z,33.90
2022-11-17T12:27:43.413Z,35.20
2022-11-17T12:31:09.808Z,35.20
2022-11-17T12:34:28.963Z,34.90
2022-11-17T12:37:33.535Z,35.10
2022-11-17T12:40:44.384Z,35.00
2022-11-17T12:43:47.480Z,34.30
2022-11-17T12:46:56.712Z,33.90
2022-11-17T12:50:38.249Z,33.80
2022-11-17T12:54:00.399Z,33.40
2022-11-17T12:57:09.269Z,33.50
2022-11-17T13:00:18.934Z,32.40
2022-11-17T13:03:29.262Z,32.80
2022-11-17T13:06:36.774Z,31.50
2022-11-17T13:09:41.505Z,31.70
2022-11-17T13:12:44.625Z,30.40
2022-11-17T13:15:52.435Z,29.30
2022-11-17T13:18:56.420Z,29.00
2022-11-17T13:22:01.721Z,27.20
2022-11-17T13:25:22.264Z,24.60
2022-11-17T13:28:28.474Z,22.80
2022-11-17T13:31:31.606Z,21.40
2022-11-17T13:34:34.774Z,20.20
2022-11-17T13:37:37.950Z,19.60
2022-11-17T13:40:43.537Z,19.00
2022-11-17T13:43:47.618Z,18.50
2022-11-17T13:46:50.876Z,17.90
2022-11-17T13:49:54.138Z,17.50
2022-11-17T13:52:59.220Z,17.10
2022-11-17T13:56:03.733Z,16.70
2022-11-17T13:59:18.955Z,16.30
2022-11-17T14:02:29.155Z,16.00
2022-11-17T14:05:33.671Z,15.70
2022-11-17T14:08:38.269Z,15.40
2022-11-17T14:11:43.600Z,15.20
2022-11-17T14:14:46.861Z,15.20
2022-11-17T14:17:51.534Z,15.20
2022-11-17T14:21:07.362Z,15.10
2022-11-17T14:24:14.159Z,15.00
2022-11-17T14:27:41.768Z,14.80
2022-11-17T14:30:45.227Z,14.50
2022-11-17T14:33:48.406Z,14.40
2022-11-17T14:36:54.761Z,14.20
2022-11-17T14:39:58.370Z,14.00
2022-11-17T14:43:02.860Z,13.80
2022-11-17T14:46:06.348Z,13.60
2022-11-17T14:49:09.560Z,13.50
2022-11-17T14:52:12.726Z,13.30
2022-11-17T14:55:16.161Z,13.20
2022-11-17T14:58:21.283Z,13.10
2022-11-17T15:01:28.395Z,13.10
2022-11-17T15:07:56.406Z,12.90
2022-11-17T15:10:59.537Z,12.80
2022-11-17T15:14:04.651Z,12.60
2022-11-17T15:17:13.849Z,12.50
2022-11-17T15:20:18.501Z,12.40
2022-11-17T15:23:21.640Z,12.30
2022-11-17T15:26:24.753Z,12.30
2022-11-17T15:29:29.248Z,12.20
2022-11-17T15:32:32.349Z,12.20
2022-11-17T15:35:35.475Z,12.10
2022-11-17T15:38:39.499Z,12.00
2022-11-17T15:41:43.276Z,11.90
2022-11-17T15:44:47.764Z,11.80
2022-11-17T15:47:50.905Z,11.70
2022-11-17T15:50:57.664Z,11.70
2022-11-17T15:54:01.486Z,11.60
2022-11-17T15:57:04.713Z,11.60
2022-11-17T16:00:11.300Z,11.50
2022-11-17T16:03:14.443Z,11.50
2022-11-17T16:06:17.592Z,11.40
2022-11-17T16:09:21.064Z,11.40
2022-11-17T16:12:24.195Z,11.30
2022-11-17T16:15:28.871Z,11.20
2022-11-17T16:18:34.171Z,11.10
2022-11-17T16:21:37.304Z,11.00
2022-11-17T16:24:40.547Z,10.90
2022-11-17T16:27:43.715Z,10.70
2022-11-17T16:30:48.289Z,10.70
2022-11-17T16:33:53.059Z,10.60
2022-11-17T16:36:56.374Z,10.50
2022-11-17T16:40:01.409Z,10.50
2022-11-17T16:43:04.769Z,10.50
2022-11-17T16:46:17.785Z,10.40
2022-11-17T16:49:21.342Z,10.40
2022-11-17T16:52:24.901Z,10.30
2022-11-17T16:55:28.241Z,10.20
2022-11-17T16:58:31.639Z,10.20
2022-11-17T17:01:36.891Z,10.10
2022-11-17T17:04:40.598Z,10.10
2022-11-17T17:07:44.592Z,10.00
2022-11-17T17:10:48.676Z,9.90
2022-11-17T17:13:52.123Z,9.90
2022-11-17T17:16:57.759Z,9.90
2022-11-17T17:20:02.242Z,9.90
2022-11-17T17:23:06.233Z,9.90
2022-11-17T17:26:12.073Z,9.90
2022-11-17T17:29:15.754Z,9.80
2022-11-17T17:32:21.792Z,9.80
2022-11-17T17:35:25.332Z,9.70
2022-11-17T17:38:29.949Z,9.70
2022-11-17T17:41:35.946Z,9.60
2022-11-17T17:44:39.727Z,9.70
2022-11-17T17:47:46.615Z,9.60
2022-11-17T17:50:50.878Z,9.70
2022-11-17T17:53:58.267Z,9.70
2022-11-17T17:57:03.898Z,9.70
2022-11-17T18:00:08.869Z,9.70
2022-11-17T18:03:14.420Z,9.70
2022-11-17T18:06:20.665Z,9.80
2022-11-17T18:09:24.357Z,9.80
2022-11-17T18:12:28.247Z,9.70
2022-11-17T18:15:32.308Z,9.70
2022-11-17T18:18:38.760Z,9.80
2022-11-17T18:21:44.229Z,9.70
2022-11-17T18:24:48.597Z,9.80
2022-11-17T18:27:55.531Z,9.80
2022-11-17T18:31:03.821Z,9.80
2022-11-17T18:34:16.239Z,9.70
2022-11-17T18:37:20.729Z,9.70
2022-11-17T18:40:25.165Z,9.60
2022-11-17T18:43:33.707Z,9.60
2022-11-17T18:46:39.335Z,9.60
2022-11-17T18:49:44.719Z,9.50
2022-11-17T18:52:50.512Z,9.50
2022-11-17T18:55:56.023Z,9.50
2022-11-17T18:59:03.435Z,9.40
2022-11-17T19:02:08.023Z,9.40
2022-11-17T19:05:17.042Z,9.30
2022-11-17T19:08:23.351Z,9.30
2022-11-17T19:11:29.208Z,9.20
2022-11-17T19:14:33.451Z,9.20
2022-11-17T19:17:38.185Z,9.20
2022-11-17T19:20:44.257Z,9.20
2022-11-17T19:23:52.182Z,9.20
2022-11-17T19:27:00.152Z,9.20
2022-11-17T19:30:05.877Z,9.20
2022-11-17T19:33:09.735Z,9.20
2022-11-17T19:36:18.969Z,9.10
2022-11-17T19:39:23.567Z,9.10
2022-11-17T19:42:27.879Z,9.00
2022-11-17T19:45:32.884Z,9.00
2022-11-17T19:48:38.091Z,8.90
2022-11-17T19:51:44.826Z,8.80
2022-11-17T19:54:49.343Z,8.80
2022-11-17T19:57:54.588Z,8.80
2022-11-17T20:00:59.412Z,8.70
2022-11-17T20:04:06.959Z,8.60
2022-11-17T20:07:18.564Z,8.60
2022-11-17T20:10:23.855Z,8.70
2022-11-17T20:13:29.599Z,8.60
2022-11-17T20:16:35.969Z,8.60
2022-11-17T20:19:42.733Z,8.60
2022-11-17T20:22:49.148Z,8.50
2022-11-17T20:26:00.963Z,8.50
2022-11-17T20:29:05.633Z,8.50
2022-11-17T20:32:09.595Z,8.40
2022-11-17T20:35:14.858Z,8.40
2022-11-17T20:38:20.786Z,8.40
2022-11-17T20:41:25.673Z,8.50
2022-11-17T20:44:29.832Z,8.40
2022-11-17T20:47:36.163Z,8.40
2022-11-17T20:50:39.663Z,8.40
2022-11-17T20:53:59.218Z,8.30
2022-11-17T20:57:03.758Z,8.40
2022-11-17T21:00:09.106Z,8.40
2022-11-17T21:03:13.162Z,8.40
2022-11-17T21:06:17.534Z,8.40
2022-11-17T21:09:23.992Z,8.40
2022-11-17T21:12:27.811Z,8.40
2022-11-17T21:15:32.252Z,8.50
2022-11-17T21:18:37.228Z,8.50
2022-11-17T21:21:40.694Z,8.60
2022-11-17T21:24:45.269Z,8.70
2022-11-17T21:27:49.019Z,8.70
2022-11-17T21:30:52.817Z,8.80
2022-11-17T21:33:57.121Z,8.80
2022-11-17T21:37:00.604Z,8.80
2022-11-17T21:40:05.813Z,8.90
2022-11-17T21:43:08.981Z,8.80
2022-11-17T21:46:14.902Z,8.80
2022-11-17T21:49:18.276Z,8.80
2022-11-17T21:52:21.517Z,8.90
2022-11-17T21:55:25.988Z,8.90
2022-11-17T21:58:29.336Z,8.90
2022-11-17T22:01:33.138Z,8.90
2022-11-17T22:04:36.310Z,8.90
2022-11-17T22:07:39.579Z,9.00
2022-11-17T22:10:44.138Z,9.00
2022-11-17T22:13:47.272Z,9.10
2022-11-17T22:16:52.252Z,9.10
2022-11-17T22:19:55.432Z,9.10
2022-11-17T22:22:58.536Z,9.20
2022-11-17T22:26:04.822Z,9.20
2022-11-17T22:29:09.747Z,9.20
2022-11-17T22:32:12.875Z,9.20
2022-11-17T22:35:16.153Z,9.10
2022-11-17T22:38:19.257Z,9.10
2022-11-17T22:41:24.568Z,9.00
2022-11-17T22:44:27.694Z,9.00
2022-11-17T22:47:30.783Z,8.80
2022-11-17T22:50:33.952Z,8.80
2022-11-17T22:53:37.127Z,8.70
2022-11-17T22:56:41.581Z,8.70
2022-11-17T22:59:44.696Z,8.70
2022-11-17T23:02:47.811Z,8.60
2022-11-17T23:05:50.914Z,8.50
2022-11-17T23:08:54.951Z,8.50
2022-11-17T23:11:59.436Z,8.50
2022-11-17T23:15:02.618Z,8.40
2022-11-17T23:18:05.932Z,8.40
2022-11-17T23:21:10.595Z,8.50
2022-11-17T23:24:14.762Z,8.50
2022-11-17T23:27:20.231Z,8.50
2022-11-17T23:30:23.309Z,8.50
2022-11-17T23:33:26.387Z,8.40
2022-11-17T23:36:30.409Z,8.40
2022-11-17T23:39:33.795Z,8.40
2022-11-17T23:42:42.903Z,8.40
2022-11-17T23:45:46.414Z,8.40
2022-11-17T23:48:49.999Z,8.30
2022-11-17T23:51:53.132Z,8.30
2022-11-17T23:54:56.327Z,8.30
2022-11-17T23:58:00.810Z,8.30
